createdAt,value
2017-08-18T10:05:34.337Z,1008.6
2017-08-18T10:16:55.804Z,1008.5
2017-08-18T10:30:48.173Z,1008.6
2017-08-18T10:32:00.855Z,1008.5
2017-08-18T10:33:13.255Z,1008.6
2017-08-18T10:35:44.255Z,1008.5
2017-08-18T10:38:12.157Z,1008.6
2017-08-18T10:39:24.803Z,1008.6
2017-08-18T10:40:37.134Z,1008.5
2017-08-18T10:41:49.618Z,1008.6
2017-08-18T10:43:02.011Z,1008.5
2017-08-18T10:44:14.222Z,1008.5
2017-08-18T10:45:26.461Z,1008.4
2017-08-18T10:47:58.351Z,1008.5
2017-08-18T10:49:10.705Z,1008.4
2017-08-18T10:50:23.292Z,1008.3
2017-08-18T10:51:35.536Z,1008.4
2017-08-18T10:52:48.063Z,1008.4
2017-08-18T10:54:00.685Z,1008.4
2017-08-18T10:55:13.143Z,1008.3
2017-08-18T10:58:16.699Z,1008.4
2017-08-18T10:59:29.165Z,1008.3
2017-08-18T11:00:41.290Z,1008.4
2017-08-18T11:01:53.858Z,1008.3
2017-08-18T11:03:06.313Z,1008.3
2017-08-18T11:04:18.791Z,1008.3
2017-08-18T11:05:31.352Z,1008.4
2017-08-18T11:06:47.136Z,1008.3
2017-08-18T11:07:59.402Z,1008.3
2017-08-18T11:09:11.874Z,1008.3
2017-08-18T11:10:24.305Z,1008.3
2017-08-18T11:11:36.512Z,1008.3
2017-08-18T11:12:48.713Z,1008.3
2017-08-18T11:14:30.130Z,1008.3
2017-08-18T11:15:42.356Z,1008.3
2017-08-18T11:16:54.876Z,1008.2
2017-08-18T11:18:07.192Z,1008.2
2017-08-18T11:19:19.446Z,1008.3
2017-08-18T11:20:31.936Z,1008.3
2017-08-18T11:21:45.475Z,1008.2
2017-08-18T11:22:58.019Z,1008.2
2017-08-18T11:24:10.512Z,1008.2
2017-08-18T11:25:22.808Z,1008.2
2017-08-18T11:26:38.416Z,1008.2
2017-08-18T11:27:50.952Z,1008.4
2017-08-18T11:29:03.149Z,1008.2
2017-08-18T11:30:15.385Z,1008.1
2017-08-18T11:31:27.559Z,1008.1
2017-08-18T11:32:39.808Z,1008.1
2017-08-18T11:33:52.085Z,1008.1
2017-08-18T11:35:04.644Z,1008.1
2017-08-18T11:36:20.204Z,1008.1
2017-08-18T11:37:32.694Z,1008.0
2017-08-18T11:38:44.977Z,1008.0
2017-08-18T11:39:57.172Z,1008.0
2017-08-18T11:41:09.640Z,1008.1
2017-08-18T11:42:21.861Z,1008.2
2017-08-18T11:43:34.472Z,1008.2
2017-08-18T11:44:46.969Z,1008.1
2017-08-18T11:46:02.244Z,1008.1
2017-08-18T11:47:14.402Z,1008.1
2017-08-18T11:48:26.889Z,1008.1
2017-08-18T11:49:39.048Z,1008.1
2017-08-18T11:50:51.507Z,1008.1
2017-08-18T11:52:03.833Z,1008.1
2017-08-18T11:53:16.439Z,1008.1
2017-08-18T11:54:28.766Z,1008.2
2017-08-18T11:55:41.043Z,1008.1
2017-08-18T11:56:53.242Z,1008.1
2017-08-18T11:58:05.512Z,1008.0
2017-08-18T11:59:18.116Z,1008.0
2017-08-18T12:00:30.578Z,1008.1
2017-08-18T12:01:42.975Z,1008.1
2017-08-18T12:02:55.454Z,1008.1
2017-08-18T12:04:07.695Z,1008.1
2017-08-18T12:05:19.899Z,1008.1
2017-08-18T12:06:35.622Z,1008.2
2017-08-18T12:07:48.179Z,1008.1
2017-08-18T12:09:00.707Z,1008.1
2017-08-18T12:10:12.905Z,1008.0
2017-08-18T12:11:25.063Z,1008.1
2017-08-18T12:12:37.581Z,1008.0
2017-08-18T12:13:50.197Z,1008.0
2017-08-18T12:15:02.355Z,1008.0
2017-08-18T12:16:18.028Z,1008.0
2017-08-18T12:17:30.509Z,1008.0
2017-08-18T12:18:42.977Z,1008.0
2017-08-18T12:19:55.586Z,1008.0
2017-08-18T12:21:08.156Z,1008.0
2017-08-18T12:22:20.283Z,1008.0
2017-08-18T12:23:32.786Z,1008.1
2017-08-18T12:24:45.415Z,1008.0
2017-08-18T12:26:01.132Z,1008.1
2017-08-18T12:27:13.216Z,1008.0
2017-08-18T12:28:25.302Z,1008.0
2017-08-18T12:29:37.824Z,1008.1
2017-08-18T12:30:49.950Z,1008.1
2017-08-18T12:32:02.394Z,1008.0
2017-08-18T12:33:14.944Z,1008.1
2017-08-18T12:34:27.396Z,1008.1
2017-08-18T12:35:39.932Z,1008.1
2017-08-18T12:36:52.446Z,1008.1
2017-08-18T12:38:04.977Z,1008.0
2017-08-18T12:39:17.496Z,1008.0
2017-08-18T12:40:29.641Z,1008.0
2017-08-18T12:41:41.874Z,1008.0
2017-08-18T12:42:54.135Z,1008.1
2017-08-18T12:44:06.371Z,1008.0
2017-08-18T12:45:18.594Z,1008.0
2017-08-18T12:46:57.515Z,1008.0
2017-08-18T12:48:09.665Z,1008.0
2017-08-18T12:49:22.231Z,1008.0
2017-08-18T12:50:34.349Z,1008.0
2017-08-18T12:51:46.628Z,1007.9
2017-08-18T12:52:58.820Z,1008.0
2017-08-18T12:54:11.032Z,1007.9
2017-08-18T12:55:23.308Z,1007.8
2017-08-18T12:56:39.343Z,1007.8
2017-08-18T12:57:51.544Z,1007.8
2017-08-18T12:59:04.111Z,1007.7
2017-08-18T13:00:16.299Z,1007.8
2017-08-18T13:01:28.805Z,1007.8
2017-08-18T13:02:40.990Z,1007.7
2017-08-18T13:03:53.534Z,1007.8
2017-08-18T13:05:06.012Z,1007.8
2017-08-18T13:06:44.624Z,1007.7
2017-08-18T13:07:56.779Z,1007.7
2017-08-18T13:09:09.217Z,1007.6
2017-08-18T13:10:21.382Z,1007.5
2017-08-18T13:11:33.620Z,1007.6
2017-08-18T13:12:46.127Z,1007.6
2017-08-18T13:13:58.629Z,1007.7
2017-08-18T13:15:10.823Z,1007.7
2017-08-18T13:16:27.204Z,1007.6
2017-08-18T13:17:39.336Z,1007.7
2017-08-18T13:18:51.800Z,1007.7
2017-08-18T13:20:04.055Z,1007.7
2017-08-18T13:21:16.242Z,1007.6
2017-08-18T13:22:28.615Z,1007.6
2017-08-18T13:23:40.746Z,1007.6
2017-08-18T13:33:18.516Z,1007.3
2017-08-18T13:34:30.802Z,1007.4
2017-08-18T13:35:44.502Z,1007.3
2017-08-18T13:36:57.150Z,1007.4
2017-08-18T13:38:09.415Z,1007.3
2017-08-18T13:39:21.959Z,1007.3
2017-08-18T13:41:50.104Z,1007.3
2017-08-18T13:43:02.333Z,1007.3
2017-08-18T13:44:14.613Z,1007.4
2017-08-18T13:45:26.969Z,1007.4
2017-08-18T13:46:45.192Z,1007.3
2017-08-18T13:47:57.772Z,1007.4
2017-08-18T13:49:10.099Z,1007.5
2017-08-18T13:50:51.941Z,1007.5
2017-08-18T13:52:04.341Z,1007.5
2017-08-18T13:54:32.872Z,1007.5
2017-08-18T13:55:45.211Z,1007.6
2017-08-18T13:56:57.962Z,1007.6
2017-08-18T13:58:10.676Z,1007.6
2017-08-18T14:00:38.886Z,1007.6
2017-08-18T14:01:51.578Z,1007.6
2017-08-18T14:03:04.552Z,1007.6
2017-08-18T14:04:16.746Z,1007.6
2017-08-18T14:06:48.104Z,1007.5
2017-08-18T14:07:59.354Z,1007.5
2017-08-18T14:09:10.877Z,1007.5
2017-08-18T14:10:22.014Z,1007.5
2017-08-18T14:11:33.366Z,1007.4
2017-08-18T14:12:44.825Z,1007.5
2017-08-18T14:13:55.913Z,1007.4
2017-08-18T14:15:07.384Z,1007.5
2017-08-18T14:16:22.340Z,1007.5
2017-08-18T15:49:02.383Z,1007.6
2017-08-18T15:52:46.501Z,1007.7
2017-08-18T16:03:33.535Z,1007.6
2017-08-18T16:04:45.874Z,1007.7
2017-08-18T16:06:02.117Z,1007.6
2017-08-18T16:07:14.248Z,1007.6
2017-08-18T16:08:26.666Z,1007.5
2017-08-18T16:09:39.075Z,1007.5
2017-08-18T16:10:54.188Z,1007.5
2017-08-18T16:12:06.349Z,1007.6
2017-08-18T16:13:19.032Z,1007.5
2017-08-18T16:14:32.489Z,1007.6
2017-08-18T16:18:01.559Z,1007.5
2017-08-18T16:20:30.230Z,1007.5
2017-08-18T16:21:43.706Z,1007.5
2017-08-18T16:22:55.028Z,1007.5
2017-08-18T16:24:08.190Z,1007.5
2017-08-18T16:25:19.284Z,1007.5
2017-08-18T16:26:33.926Z,1007.5
2017-08-18T16:27:45.319Z,1007.5
2017-08-18T16:28:56.591Z,1007.5
2017-08-18T16:30:07.964Z,1007.5
2017-08-18T16:31:19.019Z,1007.5
2017-08-18T16:32:30.322Z,1007.5
2017-08-18T16:33:41.365Z,1007.5
2017-08-18T16:34:52.718Z,1007.4
2017-08-18T16:36:07.524Z,1007.5
2017-08-18T16:37:18.539Z,1007.4
2017-08-18T16:38:29.718Z,1007.4
2017-08-18T16:39:41.121Z,1007.4
2017-08-18T16:40:52.177Z,1007.3
2017-08-18T16:42:03.563Z,1007.3
2017-08-18T16:43:14.617Z,1007.4
2017-08-18T16:44:25.745Z,1007.3
2017-08-18T16:45:37.717Z,1007.4
2017-08-18T16:46:52.224Z,1007.3
2017-08-18T16:48:03.221Z,1007.3
2017-08-18T16:49:14.527Z,1007.3
2017-08-18T16:50:25.547Z,1007.3
2017-08-18T16:51:36.670Z,1007.3
2017-08-18T16:52:48.002Z,1007.3
2017-08-18T16:53:59.337Z,1007.3
2017-08-18T16:55:10.477Z,1007.3
2017-08-18T17:19:33.054Z,1007.6
2017-08-18T17:21:13.301Z,1007.6
2017-08-18T17:22:26.100Z,1007.6
2017-08-18T17:25:11.463Z,1007.5
2017-08-18T17:26:30.193Z,1007.5
2017-08-18T17:27:43.132Z,1007.5
2017-08-18T17:54:42.702Z,1007.3
2017-08-18T17:55:55.422Z,1007.4
2017-08-18T18:00:54.151Z,1007.4
